Time;durP1;ratioP1;P1;durP2;ratioP2;P2;SDS_P1;SDS_P2;PMS_P1;PMS_P2;Temp;Humidity;BMP_temperature;BMP_pressure;BME280_temperature;BME280_humidity;BME280_pressure;Samples;Min_cycle;Max_cycle;Signal;HPM_P1;HPM_P2
2023/05/27 00:01:13;;;;;;;12.05;8.90;;;;;;;;;;4958899;29;20147;-78
2023/05/27 00:03:40;;;;;;;13.48;8.40;;;;;;;;;;4959896;29;20058;-77
2023/05/27 00:06:06;;;;;;;10.88;8.15;;;;;;;;;;4960211;29;20054;-77
2023/05/27 00:08:34;;;;;;;16.92;8.50;;;;;;;;;;4958528;29;20137;-76
2023/05/27 00:11:01;;;;;;;11.57;8.45;;;;;;;;;;4958364;29;20047;-76
2023/05/27 00:13:28;;;;;;;10.73;7.80;;;;;;;;;;4958550;29;20082;-77
2023/05/27 00:15:55;;;;;;;10.35;8.00;;;;;;;;;;4958334;29;20078;-78
2023/05/27 00:18:22;;;;;;;10.18;7.97;;;;;;;;;;4956883;28;20051;-78
2023/05/27 00:20:49;;;;;;;12.02;8.80;;;;;;;;;;4956988;29;20506;-77
2023/05/27 00:23:15;;;;;;;13.10;8.82;;;;;;;;;;4957872;29;20043;-77
2023/05/27 00:25:44;;;;;;;10.75;8.45;;;;;;;;;;4957489;29;20048;-77
2023/05/27 00:28:11;;;;;;;11.50;8.30;;;;;;;;;;4950415;29;20043;-77
2023/05/27 00:30:38;;;;;;;10.98;7.60;;;;;;;;;;4957599;29;20147;-76
2023/05/27 00:33:05;;;;;;;11.50;8.27;;;;;;;;;;4956182;29;20082;-77
2023/05/27 00:35:31;;;;;;;10.02;7.95;;;;;;;;;;4956765;29;20487;-78
2023/05/27 00:37:58;;;;;;;12.75;8.13;;;;;;;;;;4954968;29;20066;-78
2023/05/27 00:40:28;;;;;;;10.02;7.93;;;;;;;;;;4982232;22;20074;-76
2023/05/27 00:42:56;;;;;;;11.13;8.35;;;;;;;;;;4991020;28;20042;-76
2023/05/27 00:45:22;;;;;;;11.88;8.60;;;;;;;;;;4991176;28;20390;-76
2023/05/27 00:47:50;;;;;;;10.45;7.85;;;;;;;;;;4990304;28;20461;-78
2023/05/27 00:50:18;;;;;;;13.32;8.60;;;;;;;;;;4981933;28;20047;-76
2023/05/27 00:52:45;;;;;;;10.13;7.78;;;;;;;;;;4971269;28;20051;-76
2023/05/27 00:55:12;;;;;;;11.45;8.40;;;;;;;;;;4971423;28;20601;-76
2023/05/27 00:57:39;;;;;;;12.07;8.27;;;;;;;;;;4971276;28;20621;-76
2023/05/27 01:00:11;;;;;;;10.52;8.43;;;;;;;;;;4970489;28;20055;-77
2023/05/27 01:02:40;;;;;;;10.88;8.57;;;;;;;;;;4970483;28;20043;-76
2023/05/27 01:05:07;;;;;;;11.35;8.45;;;;;;;;;;4970615;28;20049;-76
2023/05/27 01:07:46;;;;;;;12.45;8.60;;;;;;;;;;4971197;28;20141;-76
2023/05/27 01:10:18;;;;;;;10.10;7.60;;;;;;;;;;4969780;28;20470;-77
2023/05/27 01:12:51;;;;;;;11.23;8.15;;;;;;;;;;4970850;28;20049;-78
2023/05/27 01:15:20;;;;;;;14.02;8.93;;;;;;;;;;4970193;28;20042;-76
2023/05/27 01:17:48;;;;;;;10.90;8.65;;;;;;;;;;4971173;28;20069;-76
2023/05/27 01:20:15;;;;;;;12.13;7.68;;;;;;;;;;4970528;28;20113;-76
2023/05/27 01:22:44;;;;;;;11.77;8.70;;;;;;;;;;4969410;28;20129;-76
2023/05/27 01:25:11;;;;;;;11.02;8.63;;;;;;;;;;4970852;28;20057;-75
2023/05/27 01:27:40;;;;;;;10.90;8.63;;;;;;;;;;4970045;28;20054;-75
2023/05/27 01:30:08;;;;;;;12.13;8.60;;;;;;;;;;4970145;28;20441;-75
2023/05/27 01:32:42;;;;;;;13.77;8.95;;;;;;;;;;4970343;28;20560;-75
2023/05/27 01:35:14;;;;;;;10.93;8.68;;;;;;;;;;4970019;28;20281;-76
2023/05/27 01:37:44;;;;;;;10.18;8.90;;;;;;;;;;4968445;28;20498;-76
2023/05/27 01:40:12;;;;;;;10.65;8.02;;;;;;;;;;4970505;28;20077;-77
2023/05/27 01:42:40;;;;;;;13.23;8.80;;;;;;;;;;4969974;28;20502;-76
2023/05/27 01:45:09;;;;;;;11.88;8.20;;;;;;;;;;4969504;28;20142;-76
2023/05/27 01:47:36;;;;;;;10.18;8.43;;;;;;;;;;4969902;28;20138;-76
2023/05/27 01:50:02;;;;;;;12.43;8.48;;;;;;;;;;4969426;28;20585;-75
2023/05/27 01:52:29;;;;;;;11.98;8.80;;;;;;;;;;4969714;28;20158;-76
2023/05/27 01:54:57;;;;;;;13.35;9.07;;;;;;;;;;4970120;28;20130;-76
2023/05/27 01:57:25;;;;;;;12.40;9.05;;;;;;;;;;4970352;28;20133;-76
2023/05/27 01:59:52;;;;;;;11.10;8.77;;;;;;;;;;4970617;28;20536;-75
2023/05/27 02:02:19;;;;;;;11.27;8.63;;;;;;;;;;4970403;28;20042;-75
2023/05/27 02:04:45;;;;;;;17.02;8.93;;;;;;;;;;4970342;28;20101;-76
2023/05/27 02:07:12;;;;;;;10.85;8.57;;;;;;;;;;4970266;28;20054;-76
2023/05/27 02:09:39;;;;;;;11.50;8.88;;;;;;;;;;4969956;28;20078;-76
2023/05/27 02:12:08;;;;;;;13.70;9.10;;;;;;;;;;4969706;28;20417;-76
2023/05/27 02:14:38;;;;;;;15.35;9.05;;;;;;;;;;4969412;28;20133;-75
2023/05/27 02:17:05;;;;;;;10.88;8.35;;;;;;;;;;4971244;28;20578;-77
2023/05/27 02:19:31;;;;;;;12.18;8.65;;;;;;;;;;4971245;28;20047;-76
2023/05/27 02:21:58;;;;;;;11.75;8.98;;;;;;;;;;4973814;28;20114;-75
2023/05/27 02:24:25;;;;;;;11.82;8.35;;;;;;;;;;4976764;28;20086;-75
2023/05/27 02:26:51;;;;;;;13.88;8.88;;;;;;;;;;4974438;28;20453;-76
2023/05/27 02:29:19;;;;;;;15.20;9.93;;;;;;;;;;4976103;28;20150;-76
2023/05/27 02:31:46;;;;;;;9.48;7.97;;;;;;;;;;4975077;28;20109;-76
2023/05/27 02:34:13;;;;;;;11.13;8.77;;;;;;;;;;4974228;28;20051;-77
2023/05/27 02:36:39;;;;;;;12.68;8.57;;;;;;;;;;4974300;28;20053;-77
2023/05/27 02:39:07;;;;;;;12.82;9.45;;;;;;;;;;4974719;28;20429;-75
2023/05/27 02:41:33;;;;;;;10.10;8.50;;;;;;;;;;4972966;28;20493;-77
2023/05/27 02:44:00;;;;;;;11.52;8.68;;;;;;;;;;4973516;28;20138;-76
2023/05/27 02:46:28;;;;;;;12.25;8.75;;;;;;;;;;4975528;28;20055;-76
2023/05/27 02:48:55;;;;;;;12.13;8.75;;;;;;;;;;4974357;28;20129;-75
2023/05/27 02:51:22;;;;;;;13.40;8.63;;;;;;;;;;4974357;28;20417;-76
2023/05/27 02:53:49;;;;;;;12.40;9.40;;;;;;;;;;4974238;28;20133;-77
2023/05/27 02:56:15;;;;;;;12.20;8.82;;;;;;;;;;4974482;28;20457;-76
2023/05/27 02:58:42;;;;;;;11.70;8.75;;;;;;;;;;4973279;28;20490;-77
2023/05/27 03:01:09;;;;;;;12.00;8.80;;;;;;;;;;4974024;28;20055;-78
2023/05/27 03:03:37;;;;;;;11.27;8.63;;;;;;;;;;4974682;28;20129;-77
2023/05/27 03:06:04;;;;;;;12.65;9.02;;;;;;;;;;4973651;28;20052;-73
2023/05/27 03:08:31;;;;;;;10.63;8.90;;;;;;;;;;4973038;28;20055;-76
2023/05/27 03:10:57;;;;;;;12.43;8.80;;;;;;;;;;4973863;28;20043;-77
2023/05/27 03:13:24;;;;;;;12.55;8.93;;;;;;;;;;4974558;28;20573;-77
2023/05/27 03:15:51;;;;;;;13.05;8.60;;;;;;;;;;4973939;28;20142;-77
2023/05/27 03:18:17;;;;;;;11.85;9.10;;;;;;;;;;4972941;28;20046;-77
2023/05/27 03:20:45;;;;;;;12.13;8.65;;;;;;;;;;4972992;28;20129;-77
2023/05/27 03:23:12;;;;;;;11.48;8.85;;;;;;;;;;4973326;28;20429;-77
2023/05/27 03:25:39;;;;;;;11.93;9.32;;;;;;;;;;4974082;28;20051;-77
2023/05/27 03:28:06;;;;;;;14.65;9.48;;;;;;;;;;4973304;28;20062;-77
2023/05/27 03:30:32;;;;;;;13.77;8.90;;;;;;;;;;4972692;28;20058;-75
2023/05/27 03:32:59;;;;;;;12.88;9.13;;;;;;;;;;4971824;28;20042;-78
2023/05/27 03:35:26;;;;;;;12.93;8.57;;;;;;;;;;4972404;28;20038;-76
2023/05/27 03:37:54;;;;;;;11.20;8.48;;;;;;;;;;4973108;28;20074;-75
2023/05/27 03:40:20;;;;;;;11.98;8.88;;;;;;;;;;4973134;28;20767;-76
2023/05/27 03:42:47;;;;;;;12.07;8.70;;;;;;;;;;4974142;28;20051;-76
2023/05/27 03:45:13;;;;;;;11.48;8.80;;;;;;;;;;4973594;28;20387;-76
2023/05/27 03:47:40;;;;;;;11.63;8.50;;;;;;;;;;4972764;28;20046;-76
2023/05/27 03:50:07;;;;;;;14.63;8.80;;;;;;;;;;4973097;28;20534;-78
2023/05/27 03:52:34;;;;;;;13.60;9.52;;;;;;;;;;4973901;28;20476;-77
2023/05/27 03:55:02;;;;;;;12.10;9.02;;;;;;;;;;4974357;28;20480;-77
2023/05/27 03:57:28;;;;;;;11.73;8.90;;;;;;;;;;4973338;28;20101;-77
2023/05/27 03:59:55;;;;;;;13.60;9.32;;;;;;;;;;4972424;28;20050;-76
2023/05/27 04:02:22;;;;;;;12.75;9.38;;;;;;;;;;4973384;28;20075;-77
2023/05/27 04:04:48;;;;;;;10.70;8.57;;;;;;;;;;4974452;28;20046;-78
2023/05/27 04:07:15;;;;;;;11.25;8.88;;;;;;;;;;4973326;28;20054;-77
2023/05/27 04:09:41;;;;;;;12.52;8.77;;;;;;;;;;4973032;28;20050;-76
2023/05/27 04:12:10;;;;;;;13.02;8.50;;;;;;;;;;4974621;28;20061;-77
2023/05/27 04:14:36;;;;;;;11.38;8.40;;;;;;;;;;4970775;28;20047;-76
2023/05/27 04:17:03;;;;;;;13.65;9.38;;;;;;;;;;4974510;28;20050;-75
2023/05/27 04:19:32;;;;;;;11.65;8.13;;;;;;;;;;4971946;28;20146;-76
2023/05/27 04:21:59;;;;;;;10.80;8.77;;;;;;;;;;4972286;28;20062;-76
2023/05/27 04:24:25;;;;;;;13.00;8.88;;;;;;;;;;4973642;28;20039;-77
2023/05/27 04:26:52;;;;;;;12.90;9.07;;;;;;;;;;4973203;28;20054;-76
2023/05/27 04:29:22;;;;;;;11.15;8.32;;;;;;;;;;4973102;28;20138;-77
2023/05/27 04:31:49;;;;;;;13.50;8.23;;;;;;;;;;4973014;28;20129;-76
2023/05/27 04:34:15;;;;;;;13.02;8.57;;;;;;;;;;4973928;28;20047;-76
2023/05/27 04:36:43;;;;;;;12.98;9.40;;;;;;;;;;4972383;28;20057;-75
2023/05/27 04:39:11;;;;;;;9.27;7.97;;;;;;;;;;4971445;28;20520;-78
2023/05/27 04:41:39;;;;;;;12.35;8.35;;;;;;;;;;4972532;28;20065;-77
2023/05/27 04:44:06;;;;;;;10.90;8.45;;;;;;;;;;4972019;28;20058;-77
2023/05/27 04:46:34;;;;;;;12.50;8.93;;;;;;;;;;4972320;28;20141;-77
2023/05/27 04:49:01;;;;;;;11.93;8.88;;;;;;;;;;4972557;28;20046;-77
2023/05/27 04:51:27;;;;;;;12.25;8.13;;;;;;;;;;4972270;28;20042;-76
2023/05/27 04:53:56;;;;;;;11.90;8.50;;;;;;;;;;4972867;28;20060;-77
2023/05/27 04:56:22;;;;;;;13.88;8.07;;;;;;;;;;4972207;28;20130;-77
2023/05/27 04:58:50;;;;;;;13.02;8.48;;;;;;;;;;4970329;28;20043;-77
2023/05/27 05:01:21;;;;;;;13.10;8.57;;;;;;;;;;4973185;28;20141;-76
2023/05/27 05:04:02;;;;;;;10.40;7.85;;;;;;;;;;4971523;28;20054;-77
2023/05/27 05:06:29;;;;;;;12.80;7.85;;;;;;;;;;4972077;28;20050;-77
2023/05/27 05:08:56;;;;;;;11.00;7.80;;;;;;;;;;4972363;28;20121;-77
2023/05/27 05:11:23;;;;;;;12.02;7.95;;;;;;;;;;4973548;28;20074;-77
2023/05/27 05:13:49;;;;;;;13.50;8.30;;;;;;;;;;4971722;28;20065;-77
2023/05/27 05:16:16;;;;;;;11.60;8.60;;;;;;;;;;4971810;28;20122;-76
2023/05/27 05:18:42;;;;;;;10.43;7.90;;;;;;;;;;4971219;28;20078;-77
2023/05/27 05:21:10;;;;;;;9.35;7.25;;;;;;;;;;4973047;28;20049;-76
2023/05/27 05:23:38;;;;;;;12.82;8.07;;;;;;;;;;4971615;28;20138;-76
2023/05/27 05:26:06;;;;;;;10.77;8.25;;;;;;;;;;4971874;28;20047;-77
2023/05/27 05:28:34;;;;;;;10.82;7.47;;;;;;;;;;4971655;28;20051;-76
2023/05/27 05:31:01;;;;;;;10.35;7.97;;;;;;;;;;4972110;28;20093;-77
2023/05/27 05:33:27;;;;;;;13.52;7.65;;;;;;;;;;4972455;28;20133;-77
2023/05/27 05:35:54;;;;;;;11.55;8.07;;;;;;;;;;4971206;28;20046;-74
2023/05/27 05:38:22;;;;;;;12.35;7.75;;;;;;;;;;4971421;28;20093;-76
2023/05/27 05:40:52;;;;;;;11.20;7.93;;;;;;;;;;4972538;28;20134;-76
2023/05/27 05:43:18;;;;;;;10.80;7.22;;;;;;;;;;4972809;28;20057;-76
2023/05/27 05:45:45;;;;;;;9.88;7.57;;;;;;;;;;4971069;28;20098;-75
2023/05/27 05:48:12;;;;;;;10.10;7.70;;;;;;;;;;4971523;28;20047;-77
2023/05/27 05:50:38;;;;;;;10.70;7.82;;;;;;;;;;4971042;28;20051;-78
2023/05/27 05:53:05;;;;;;;11.50;7.22;;;;;;;;;;4971372;28;20046;-76
2023/05/27 05:55:33;;;;;;;12.00;7.97;;;;;;;;;;4971852;28;20043;-79
2023/05/27 05:58:00;;;;;;;11.32;7.00;;;;;;;;;;4975573;28;20089;-78
2023/05/27 06:00:27;;;;;;;11.98;7.13;;;;;;;;;;4975944;28;20433;-77
2023/05/27 06:02:53;;;;;;;10.88;7.97;;;;;;;;;;4976022;28;20058;-77
2023/05/27 06:05:22;;;;;;;11.18;7.13;;;;;;;;;;4975515;28;20110;-78
2023/05/27 06:07:48;;;;;;;13.00;7.85;;;;;;;;;;4975604;28;20082;-77
2023/05/27 06:10:16;;;;;;;13.50;8.15;;;;;;;;;;4975302;28;20497;-77
2023/05/27 06:12:44;;;;;;;14.00;7.20;;;;;;;;;;4976623;28;20129;-76
2023/05/27 06:15:12;;;;;;;16.02;7.95;;;;;;;;;;4977104;28;20197;-77
2023/05/27 06:17:38;;;;;;;10.50;7.57;;;;;;;;;;4977217;28;20524;-76
2023/05/27 06:20:06;;;;;;;9.75;7.30;;;;;;;;;;4975203;28;20053;-76
2023/05/27 06:22:33;;;;;;;11.32;7.10;;;;;;;;;;4976891;28;20498;-78
2023/05/27 06:25:00;;;;;;;12.80;7.65;;;;;;;;;;4977722;28;20086;-79
2023/05/27 06:27:26;;;;;;;12.73;7.53;;;;;;;;;;4979944;28;20050;-76
2023/05/27 06:29:56;;;;;;;14.48;7.05;;;;;;;;;;4977727;28;20047;-78
2023/05/27 06:32:23;;;;;;;9.37;6.30;;;;;;;;;;4981049;28;20047;-76
2023/05/27 06:34:50;;;;;;;13.23;6.22;;;;;;;;;;4979873;28;20295;-76
2023/05/27 06:37:17;;;;;;;8.63;6.28;;;;;;;;;;4981215;28;20137;-77
2023/05/27 06:39:43;;;;;;;10.65;6.90;;;;;;;;;;4981631;28;20060;-77
2023/05/27 06:42:10;;;;;;;11.25;6.03;;;;;;;;;;4981040;28;20053;-76
2023/05/27 06:44:36;;;;;;;13.85;6.55;;;;;;;;;;4982538;28;20114;-76
2023/05/27 06:47:05;;;;;;;9.80;6.15;;;;;;;;;;4981738;28;20051;-77
2023/05/27 06:49:32;;;;;;;11.88;6.05;;;;;;;;;;4977866;28;20494;-76
2023/05/27 06:51:58;;;;;;;9.57;5.82;;;;;;;;;;4980034;28;20050;-77
2023/05/27 06:54:25;;;;;;;13.95;6.45;;;;;;;;;;4980537;28;20043;-75
2023/05/27 06:56:51;;;;;;;8.40;5.80;;;;;;;;;;4980653;28;20047;-75
2023/05/27 06:59:18;;;;;;;9.98;5.70;;;;;;;;;;4978530;28;20054;-76
2023/05/27 07:01:45;;;;;;;8.32;5.22;;;;;;;;;;4983318;28;20051;-76
2023/05/27 07:04:13;;;;;;;8.73;5.63;;;;;;;;;;4982008;28;20051;-75
2023/05/27 07:06:40;;;;;;;10.68;5.30;;;;;;;;;;4980572;28;20043;-77
2023/05/27 07:09:07;;;;;;;12.80;5.90;;;;;;;;;;4980649;28;20106;-77
2023/05/27 07:11:33;;;;;;;10.70;5.30;;;;;;;;;;4979720;28;20051;-76
2023/05/27 07:14:00;;;;;;;12.98;5.80;;;;;;;;;;4979922;28;20055;-76
2023/05/27 07:16:27;;;;;;;13.43;5.50;;;;;;;;;;4982398;28;20091;-77
2023/05/27 07:18:53;;;;;;;11.80;5.80;;;;;;;;;;4981894;28;20077;-77
2023/05/27 07:21:21;;;;;;;8.38;5.47;;;;;;;;;;4982435;28;20053;-75
2023/05/27 07:23:48;;;;;;;8.70;5.60;;;;;;;;;;4981834;28;20118;-77
2023/05/27 07:26:15;;;;;;;10.25;5.22;;;;;;;;;;4980752;28;20039;-77
2023/05/27 07:28:41;;;;;;;9.10;5.22;;;;;;;;;;4977366;28;20049;-76
2023/05/27 07:31:08;;;;;;;9.65;5.78;;;;;;;;;;4978855;28;20055;-77
2023/05/27 07:33:34;;;;;;;9.30;5.55;;;;;;;;;;4977480;28;20125;-76
2023/05/27 07:36:01;;;;;;;10.10;5.70;;;;;;;;;;4976946;28;20141;-77
2023/05/27 07:38:29;;;;;;;10.35;5.60;;;;;;;;;;4976594;28;20130;-76
2023/05/27 07:40:56;;;;;;;9.80;5.35;;;;;;;;;;4977676;28;20049;-76
2023/05/27 07:43:23;;;;;;;11.77;5.82;;;;;;;;;;4976107;28;20518;-75
2023/05/27 07:45:49;;;;;;;9.13;5.57;;;;;;;;;;4978459;28;20077;-75
2023/05/27 07:48:16;;;;;;;11.40;5.68;;;;;;;;;;4977759;28;20043;-77
2023/05/27 07:50:43;;;;;;;11.85;6.47;;;;;;;;;;4977482;28;20043;-76
2023/05/27 07:53:09;;;;;;;11.27;5.82;;;;;;;;;;4977776;28;20054;-76
2023/05/27 07:55:37;;;;;;;10.43;5.63;;;;;;;;;;4974537;28;20523;-77
2023/05/27 07:58:04;;;;;;;10.88;5.65;;;;;;;;;;4976905;28;20043;-76
2023/05/27 08:00:31;;;;;;;9.98;5.78;;;;;;;;;;4973623;28;20133;-77
2023/05/27 08:02:58;;;;;;;9.95;5.72;;;;;;;;;;4973285;28;20042;-77
2023/05/27 08:05:24;;;;;;;13.38;5.82;;;;;;;;;;4974402;28;20499;-76
2023/05/27 08:07:51;;;;;;;11.27;6.28;;;;;;;;;;4973329;28;20047;-76
2023/05/27 08:10:18;;;;;;;9.35;5.60;;;;;;;;;;4973547;28;20113;-75
2023/05/27 08:12:46;;;;;;;10.13;5.28;;;;;;;;;;4973829;28;20082;-76
2023/05/27 08:15:12;;;;;;;11.88;5.97;;;;;;;;;;4973936;28;20049;-76
2023/05/27 08:17:39;;;;;;;10.95;5.75;;;;;;;;;;4972072;28;20067;-77
2023/05/27 08:20:08;;;;;;;13.93;6.32;;;;;;;;;;4972350;28;20051;-77
2023/05/27 08:22:34;;;;;;;11.25;6.03;;;;;;;;;;4975578;28;20050;-78
2023/05/27 08:25:01;;;;;;;8.55;5.57;;;;;;;;;;4975843;28;20121;-77
2023/05/27 08:27:43;;;;;;;10.88;5.80;;;;;;;;;;4975316;28;20134;-77
2023/05/27 08:30:13;;;;;;;13.63;6.20;;;;;;;;;;4976821;28;20514;-78
2023/05/27 08:32:39;;;;;;;8.90;5.75;;;;;;;;;;4976215;28;20081;-78
2023/05/27 08:35:06;;;;;;;10.93;6.35;;;;;;;;;;4976251;28;20133;-78
2023/05/27 08:37:33;;;;;;;10.70;6.13;;;;;;;;;;4974705;28;20054;-77
2023/05/27 08:39:59;;;;;;;11.43;6.32;;;;;;;;;;4975768;28;20057;-77
2023/05/27 08:42:26;;;;;;;9.40;5.90;;;;;;;;;;4976138;28;20059;-77
2023/05/27 08:44:53;;;;;;;11.00;5.78;;;;;;;;;;4973566;28;20057;-77
2023/05/27 08:47:22;;;;;;;13.25;6.00;;;;;;;;;;4968749;28;20061;-76
2023/05/27 08:49:49;;;;;;;9.65;5.82;;;;;;;;;;4972209;28;20042;-76
2023/05/27 08:52:19;;;;;;;12.05;5.95;;;;;;;;;;4974187;28;20073;-76
2023/05/27 08:54:48;;;;;;;11.40;6.43;;;;;;;;;;4974407;28;20109;-77
2023/05/27 08:57:18;;;;;;;9.48;6.25;;;;;;;;;;4957924;28;20497;-77
2023/05/27 08:59:46;;;;;;;11.18;6.00;;;;;;;;;;4955658;28;20110;-78
2023/05/27 09:02:13;;;;;;;13.18;6.55;;;;;;;;;;4956933;28;20130;-76
2023/05/27 09:04:42;;;;;;;9.98;5.85;;;;;;;;;;4973747;28;20106;-76
2023/05/27 09:07:09;;;;;;;12.80;6.60;;;;;;;;;;4974536;28;20125;-77
2023/05/27 09:09:36;;;;;;;14.20;6.47;;;;;;;;;;4975306;28;20063;-76
2023/05/27 09:12:03;;;;;;;11.57;6.13;;;;;;;;;;4973737;28;20051;-76
2023/05/27 09:14:30;;;;;;;12.80;6.78;;;;;;;;;;4975411;28;20422;-75
2023/05/27 09:16:57;;;;;;;11.73;6.72;;;;;;;;;;4974199;28;20053;-78
2023/05/27 09:19:24;;;;;;;10.15;6.40;;;;;;;;;;4974264;28;20141;-76
2023/05/27 09:21:53;;;;;;;14.68;7.60;;;;;;;;;;4975624;28;20053;-76
2023/05/27 09:24:20;;;;;;;11.43;6.03;;;;;;;;;;4975135;28;20074;-78
2023/05/27 09:26:47;;;;;;;12.05;7.00;;;;;;;;;;4975372;28;20505;-78
2023/05/27 09:29:13;;;;;;;10.50;7.13;;;;;;;;;;4974562;28;20081;-78
2023/05/27 09:31:41;;;;;;;10.40;6.25;;;;;;;;;;4973667;28;20130;-78
2023/05/27 09:34:12;;;;;;;12.90;7.85;;;;;;;;;;4974467;28;20047;-81
2023/05/27 09:36:43;;;;;;;11.02;6.47;;;;;;;;;;4974742;28;20053;-78
2023/05/27 09:39:11;;;;;;;11.73;7.10;;;;;;;;;;4973948;28;20071;-77
2023/05/27 09:41:38;;;;;;;12.85;6.78;;;;;;;;;;4974142;28;20086;-77
2023/05/27 09:44:06;;;;;;;10.10;6.18;;;;;;;;;;4969545;28;20503;-77
2023/05/27 09:46:33;;;;;;;12.05;6.97;;;;;;;;;;4975502;28;20046;-78
2023/05/27 09:49:00;;;;;;;11.60;7.10;;;;;;;;;;4973628;28;20418;-77
2023/05/27 09:51:27;;;;;;;11.18;6.72;;;;;;;;;;4973615;28;20543;-77
2023/05/27 09:53:55;;;;;;;11.25;6.60;;;;;;;;;;4973884;28;20072;-77
2023/05/27 09:56:26;;;;;;;12.57;6.75;;;;;;;;;;4975290;28;20073;-77
2023/05/27 09:58:53;;;;;;;9.63;6.93;;;;;;;;;;4974766;28;20057;-77
2023/05/27 10:01:20;;;;;;;13.18;6.45;;;;;;;;;;4975889;28;20521;-76
2023/05/27 10:03:48;;;;;;;11.77;7.45;;;;;;;;;;4975478;28;20047;-78
2023/05/27 10:06:17;;;;;;;9.82;6.13;;;;;;;;;;4975417;28;20047;-77
2023/05/27 10:08:45;;;;;;;12.85;6.45;;;;;;;;;;4974630;28;20518;-77
2023/05/27 10:11:12;;;;;;;11.85;6.32;;;;;;;;;;4976147;28;20054;-76
2023/05/27 10:13:40;;;;;;;9.60;6.22;;;;;;;;;;4974784;28;20078;-76
2023/05/27 10:16:07;;;;;;;11.23;6.60;;;;;;;;;;4975348;28;20057;-77
2023/05/27 10:18:34;;;;;;;10.65;6.22;;;;;;;;;;4974631;28;20051;-78
2023/05/27 10:21:05;;;;;;;13.25;7.45;;;;;;;;;;4975361;28;20138;-78
2023/05/27 10:23:32;;;;;;;11.45;6.35;;;;;;;;;;4975662;28;20051;-78
2023/05/27 10:26:02;;;;;;;13.68;6.82;;;;;;;;;;4975285;28;20457;-77
2023/05/27 12:01:38;;;;;;;11.13;5.50;;;;;;;;;;5008892;28;20052;-79
2023/05/27 12:04:05;;;;;;;10.45;5.40;;;;;;;;;;5011387;28;20148;-80
2023/05/27 12:06:32;;;;;;;9.93;5.45;;;;;;;;;;5012968;28;20049;-79
2023/05/27 12:08:59;;;;;;;11.52;6.20;;;;;;;;;;5012432;28;20132;-79
2023/05/27 12:11:26;;;;;;;9.50;5.70;;;;;;;;;;5012188;28;20045;-79
2023/05/27 12:13:54;;;;;;;9.00;5.22;;;;;;;;;;5012130;28;20064;-79
2023/05/27 12:16:20;;;;;;;9.60;5.30;;;;;;;;;;5011997;28;20069;-78
2023/05/27 12:18:48;;;;;;;9.50;5.80;;;;;;;;;;5010581;28;20460;-80
2023/05/27 12:21:16;;;;;;;7.47;4.95;;;;;;;;;;5011644;28;20064;-79
2023/05/27 12:23:42;;;;;;;9.30;5.32;;;;;;;;;;5011667;28;20050;-77
2023/05/27 12:26:10;;;;;;;8.40;5.55;;;;;;;;;;5011921;28;20124;-79
2023/05/27 12:28:37;;;;;;;9.48;5.80;;;;;;;;;;5011837;28;20053;-79
2023/05/27 12:31:04;;;;;;;9.10;5.13;;;;;;;;;;5011641;28;20050;-79
2023/05/27 12:33:31;;;;;;;8.65;4.65;;;;;;;;;;5011441;28;20042;-78
2023/05/27 12:35:59;;;;;;;9.02;5.20;;;;;;;;;;5011899;28;20053;-77
2023/05/27 12:38:25;;;;;;;7.68;4.85;;;;;;;;;;5011701;28;20041;-79
2023/05/27 12:40:55;;;;;;;8.32;4.88;;;;;;;;;;5011592;28;20108;-78
2023/05/27 12:43:22;;;;;;;8.00;4.75;;;;;;;;;;5011609;28;20050;-79
2023/05/27 12:45:48;;;;;;;7.03;4.95;;;;;;;;;;5011311;28;20049;-79
2023/05/27 12:48:15;;;;;;;9.57;4.72;;;;;;;;;;5011275;28;20056;-77
2023/05/27 12:50:42;;;;;;;7.05;4.07;;;;;;;;;;5012025;28;20046;-79
2023/05/27 12:53:10;;;;;;;7.13;4.90;;;;;;;;;;5012245;28;20137;-80
2023/05/27 12:55:38;;;;;;;9.25;5.30;;;;;;;;;;5011304;28;20050;-80
2023/05/27 12:58:05;;;;;;;8.73;4.80;;;;;;;;;;5011339;28;20440;-79
2023/05/27 13:00:34;;;;;;;8.45;5.15;;;;;;;;;;5011030;28;20084;-78
2023/05/27 13:03:00;;;;;;;8.95;5.13;;;;;;;;;;5011332;28;20164;-78
2023/05/27 13:05:27;;;;;;;9.70;4.82;;;;;;;;;;5010767;28;20046;-79
2023/05/27 13:07:56;;;;;;;7.38;4.45;;;;;;;;;;5011008;28;20113;-79
2023/05/27 13:10:24;;;;;;;7.60;4.80;;;;;;;;;;5011247;28;20677;-78
2023/05/27 13:12:51;;;;;;;9.38;5.03;;;;;;;;;;5011480;28;20044;-79
2023/05/27 13:15:19;;;;;;;8.93;4.93;;;;;;;;;;5010808;28;20046;-77
2023/05/27 13:17:46;;;;;;;8.80;4.53;;;;;;;;;;5011943;28;20046;-79
2023/05/27 13:20:13;;;;;;;7.97;4.47;;;;;;;;;;5013055;28;20046;-79
2023/05/27 13:22:39;;;;;;;8.20;4.70;;;;;;;;;;5015918;28;20599;-81
2023/05/27 13:25:07;;;;;;;20.08;5.63;;;;;;;;;;5013970;28;20092;-80
2023/05/27 13:27:35;;;;;;;6.75;4.28;;;;;;;;;;5014306;28;20077;-77
2023/05/27 13:30:02;;;;;;;9.25;5.15;;;;;;;;;;5013529;28;20042;-79
2023/05/27 13:32:28;;;;;;;11.98;4.47;;;;;;;;;;5014399;28;20141;-79
2023/05/27 13:34:55;;;;;;;14.65;5.78;;;;;;;;;;5014726;28;20689;-80
2023/05/27 13:37:22;;;;;;;9.15;5.38;;;;;;;;;;5016305;28;20136;-79
2023/05/27 13:39:48;;;;;;;11.40;5.38;;;;;;;;;;5017102;28;20085;-84
2023/05/27 13:42:15;;;;;;;7.25;4.63;;;;;;;;;;5017389;28;20120;-80
2023/05/27 13:44:43;;;;;;;10.30;4.63;;;;;;;;;;5015868;28;20069;-79
2023/05/27 13:47:10;;;;;;;10.57;5.30;;;;;;;;;;5028786;28;20049;-82
2023/05/27 13:49:36;;;;;;;7.22;4.50;;;;;;;;;;5021428;28;20080;-82
2023/05/27 13:52:03;;;;;;;13.77;5.20;;;;;;;;;;5014192;28;20076;-80
2023/05/27 13:54:30;;;;;;;7.20;4.47;;;;;;;;;;5013828;28;20504;-81
2023/05/27 13:56:57;;;;;;;7.88;4.63;;;;;;;;;;5005506;28;20046;-79
2023/05/27 13:59:23;;;;;;;9.38;5.40;;;;;;;;;;5005296;28;20129;-78
2023/05/27 14:01:51;;;;;;;7.70;4.88;;;;;;;;;;5013879;28;20102;-79
2023/05/27 14:04:20;;;;;;;8.77;4.75;;;;;;;;;;5012406;28;20068;-79
2023/05/27 14:06:47;;;;;;;7.90;4.43;;;;;;;;;;4994170;28;20066;-80
2023/05/27 14:09:13;;;;;;;8.57;4.43;;;;;;;;;;4993669;28;20107;-79
2023/05/27 14:11:40;;;;;;;11.63;5.75;;;;;;;;;;4993569;28;20077;-80
2023/05/27 14:14:07;;;;;;;7.65;4.63;;;;;;;;;;4993745;28;20137;-79
2023/05/27 14:16:33;;;;;;;8.65;4.57;;;;;;;;;;4995922;28;20055;-77
2023/05/27 14:19:02;;;;;;;9.35;4.70;;;;;;;;;;4996858;28;20073;-78
2023/05/27 14:21:29;;;;;;;7.63;4.57;;;;;;;;;;5002774;28;20070;-79
2023/05/27 14:23:56;;;;;;;10.88;5.22;;;;;;;;;;5004477;28;20082;-78
2023/05/27 14:26:22;;;;;;;8.82;5.03;;;;;;;;;;5013388;28;20049;-84
2023/05/27 14:28:49;;;;;;;7.60;4.47;;;;;;;;;;5033937;28;20046;-83
2023/05/27 14:31:15;;;;;;;8.48;4.60;;;;;;;;;;5036514;28;20069;-82
2023/05/27 14:33:42;;;;;;;8.50;4.40;;;;;;;;;;5036806;28;20104;-82
2023/05/27 14:36:11;;;;;;;8.63;4.78;;;;;;;;;;5031479;28;20057;-78
2023/05/27 14:38:38;;;;;;;8.27;4.28;;;;;;;;;;5032798;28;20077;-80
2023/05/27 14:41:05;;;;;;;7.30;4.20;;;;;;;;;;5032263;28;20113;-81
2023/05/27 14:43:31;;;;;;;8.48;4.28;;;;;;;;;;5031768;28;20136;-83
2023/05/27 14:45:58;;;;;;;6.45;4.35;;;;;;;;;;5033645;28;20033;-83
2023/05/27 14:48:26;;;;;;;8.63;4.38;;;;;;;;;;5038112;28;20046;-84
2023/05/27 14:50:52;;;;;;;9.57;4.35;;;;;;;;;;5035592;28;20038;-83
2023/05/27 14:53:20;;;;;;;8.65;4.40;;;;;;;;;;5035052;28;20053;-84
2023/05/27 14:55:48;;;;;;;8.35;4.43;;;;;;;;;;5033358;28;20045;-80
2023/05/27 14:58:15;;;;;;;7.18;3.92;;;;;;;;;;5043855;28;20052;-81
2023/05/27 15:00:42;;;;;;;8.80;4.43;;;;;;;;;;5050060;28;20076;-81
2023/05/27 15:03:09;;;;;;;7.68;4.32;;;;;;;;;;5047695;28;20469;-77
2023/05/27 15:05:36;;;;;;;8.95;4.00;;;;;;;;;;5044195;28;20065;-79
2023/05/27 15:08:05;;;;;;;7.78;3.67;;;;;;;;;;5047408;28;20168;-80
2023/05/27 15:10:33;;;;;;;6.97;4.15;;;;;;;;;;5052461;28;20048;-83
2023/05/27 15:12:59;;;;;;;10.18;4.28;;;;;;;;;;5053746;28;20044;-79
2023/05/27 15:15:26;;;;;;;6.03;4.00;;;;;;;;;;5048328;28;20237;-80
2023/05/27 15:17:53;;;;;;;6.65;3.70;;;;;;;;;;5049527;28;20536;-80
2023/05/27 15:20:19;;;;;;;7.35;3.72;;;;;;;;;;5047107;28;20065;-80
2023/05/27 15:22:47;;;;;;;8.98;4.60;;;;;;;;;;5047710;28;20077;-80
2023/05/27 15:25:14;;;;;;;7.40;3.83;;;;;;;;;;5046656;28;20037;-80
2023/05/27 15:27:42;;;;;;;7.38;3.40;;;;;;;;;;5046370;28;20046;-79
2023/05/27 15:30:10;;;;;;;8.20;4.05;;;;;;;;;;5043798;28;20087;-80
2023/05/27 15:32:37;;;;;;;8.05;4.10;;;;;;;;;;5038473;28;20045;-80
2023/05/27 15:35:05;;;;;;;8.85;4.00;;;;;;;;;;5038162;28;20113;-80
2023/05/27 15:37:32;;;;;;;8.35;3.67;;;;;;;;;;5037128;28;20060;-81
2023/05/27 15:39:58;;;;;;;6.47;3.60;;;;;;;;;;5038073;28;20468;-81
2023/05/27 15:42:25;;;;;;;7.15;3.88;;;;;;;;;;5037757;28;20041;-80
2023/05/27 15:44:53;;;;;;;8.52;3.78;;;;;;;;;;5037709;28;20097;-80
2023/05/27 15:47:20;;;;;;;9.70;4.10;;;;;;;;;;5037994;28;20049;-81
2023/05/27 15:49:47;;;;;;;6.38;3.65;;;;;;;;;;5037675;28;20137;-79
2023/05/27 15:52:13;;;;;;;8.13;4.05;;;;;;;;;;5040161;28;20071;-81
2023/05/27 15:54:41;;;;;;;7.20;3.92;;;;;;;;;;5037981;28;20487;-81
2023/05/27 15:57:08;;;;;;;6.22;4.00;;;;;;;;;;5037343;28;20049;-80
2023/05/27 15:59:34;;;;;;;8.13;3.70;;;;;;;;;;5036756;28;20109;-81
2023/05/27 16:02:03;;;;;;;6.28;3.63;;;;;;;;;;5037586;28;20125;-81
2023/05/27 16:04:30;;;;;;;8.27;3.70;;;;;;;;;;5036968;28;20156;-81
2023/05/27 16:06:57;;;;;;;7.70;4.15;;;;;;;;;;5037237;28;20121;-81